LCKA4: Locksburg, AR

                                SHEF ID:       LCKA4     Saline River near Lockesburg, AR
STATION TYPE: Stream Gauge
Regulating: Stage = 8.80, Flow = 813

PRECIP STAGE RIV-FLOW BAT-LOAD
in ft cfs volt
Ccp-Rev Ccp-Rev Ccp-Rev Ccp-Rev
(America/Chicago)
04/27 00:00 ---- 5.70 303 12.53
04/27 01:00 ---- 5.63 294 12.50
04/27 02:00 ---- 5.56 285 12.48
04/27 03:00 ---- 5.48 274 12.46
04/27 04:00 ---- 5.40 263 12.45
04/27 05:00 ---- 5.32 253 12.44
04/27 06:00 ---- 5.25 244 12.41
04/27 07:00 ---- 5.18 235 12.42
04/27 08:00 ---- 5.11 226 12.46
04/27 09:00 ---- 5.05 219 12.61
04/27 10:00 ---- 4.99 212 13.10
04/27 11:00 ---- 4.93 204 13.34
04/27 12:00 ---- 4.88 198 13.06
04/27 13:00 ---- 4.83 193 12.92
04/27 14:00 ---- 4.78 187 12.88
04/27 15:00 ---- 4.74 182 12.94
04/27 16:00 ---- 4.70 177 12.87
04/27 17:00 ---- 4.66 173 12.79
04/27 18:00 ---- 4.62 168 12.70
04/27 19:00 ---- 4.59 165 12.71
04/27 20:00 ---- 4.56 162 12.67
04/27 21:00 ---- 4.53 158 12.60
04/27 22:00 ---- 4.50 155 12.57
04/27 23:00 ---- 4.47 150 12.54
Data processed at Tue 28Apr2026 04:11 GMT

NOTICE: If you are parsing this page

Please convert to using our Data API. Starting early 2026 we will be migrating to: https://water.usace.army.mil with modern pages rendered in JavaScript. When this migration completes you will no longer be able to scrape this page! CWMSDataAPI (CDA)

Timeseries IDs (TSIDs)

TSIDs used from left to right in the data table
LOCK.Precip-Inc.Total.1Hour.1Hour.Ccp-Rev
LOCK.Stage.Inst.1Hour.0.Ccp-Rev
LOCK.Flow.Inst.1Hour.0.Ccp-Rev
LOCK.Volt-Battery Load.Inst.1Hour.0.Ccp-Rev

                            

All information presented herein is the property of the government of the United States of America and may be revised or deleted at any time without prior notice. Dissemination of this information without the expressed written consent of the Public Affairs Office, Tulsa District U.S. Army Corps of Engineers is strictly prohibited. These data are gathered electronically and, as presented, have NOT undergone any form of quality control. These data are NOT guaranteed to be valid or correct.